BOE1Z KBFI-CYEG
Flight info
| Callsign | BOE1Z |
|---|---|
| Flight time | N/A |
| Altitude | 37000 |
| Route | NRVNA1 SEA J5 CFJCC VITEV VIDRI Q949 ELLKS ELLKS3 |
| Aircraft | B744/H-SDE3FGHIM1M2RWXY/LB1 |
Departure
| Time | 2026-04-28 23:11 |
|---|---|
| Airport | King County International Airport - Boeing Field (KBFI) |
Arrival
| Time | N/A |
|---|---|
| Airport | Edmonton International Airport (CYEG) |
| Time | Latitude | Longitude | Altitude | Speed | Heading |
|---|---|---|---|---|---|
| 2026-04-28 22:45 | 47.54015 | -122.31485 | 22 ft | 0 kts | 182° |
| 2026-04-28 23:07 | 47.54005 | -122.31486 | 22 ft | 4 kts | 181° |
| 2026-04-28 23:07 | 47.53968 | -122.31464 | 22 ft | 7 kts | 138° |
| 2026-04-28 23:07 | 47.53943 | -122.31367 | 23 ft | 13 kts | 76° |
| 2026-04-28 23:08 | 47.53975 | -122.31271 | 24 ft | 6 kts | 80° |
| 2026-04-28 23:08 | 47.53983 | -122.31238 | 25 ft | 5 kts | 65° |
| 2026-04-28 23:08 | 47.53986 | -122.31231 | 25 ft | 0 kts | 65° |
| 2026-04-28 23:09 | 47.53991 | -122.31214 | 25 ft | 6 kts | 64° |
| 2026-04-28 23:10 | 47.53992 | -122.31022 | 25 ft | 17 kts | 117° |
| 2026-04-28 23:10 | 47.53862 | -122.30929 | 25 ft | 35 kts | 156° |
| 2026-04-28 23:10 | 47.53336 | -122.30515 | 25 ft | 134 kts | 148° |
| 2026-04-28 23:10 | 47.52319 | -122.29636 | 113 ft | 203 kts | 150° |
| 2026-04-28 23:11 | 47.51174 | -122.28614 | 485 ft | 188 kts | 149° |
| 2026-04-28 23:11 | 47.50072 | -122.27602 | 863 ft | 203 kts | 147° |
| 2026-04-28 23:11 | 47.48849 | -122.26419 | 1466 ft | 220 kts | 151° |
| 2026-04-28 23:11 | 47.47531 | -122.25385 | 2454 ft | 237 kts | 152° |
| 2026-04-28 23:12 | 47.45997 | -122.24144 | 2288 ft | 260 kts | 151° |
| 2026-04-28 23:12 | 47.44478 | -122.22897 | 1907 ft | 254 kts | 151° |
| 2026-04-28 23:12 | 47.43013 | -122.21687 | 1755 ft | 241 kts | 151° |
| 2026-04-28 23:12 | 47.41588 | -122.20519 | 1750 ft | 231 kts | 151° |
| 2026-04-28 23:13 | 47.40190 | -122.19383 | 1933 ft | 238 kts | 152° |
| 2026-04-28 23:13 | 47.38745 | -122.18221 | 2371 ft | 251 kts | 151° |
| 2026-04-28 23:13 | 47.37216 | -122.16966 | 2873 ft | 259 kts | 150° |
| 2026-04-28 23:13 | 47.35654 | -122.15646 | 3350 ft | 264 kts | 149° |
| 2026-04-28 23:14 | 47.34095 | -122.14314 | 3817 ft | 267 kts | 149° |
| 2026-04-28 23:14 | 47.32497 | -122.12938 | 4313 ft | 268 kts | 149° |
| 2026-04-28 23:14 | 47.30938 | -122.11592 | 4895 ft | 267 kts | 150° |
| 2026-04-28 23:14 | 47.29440 | -122.10061 | 5491 ft | 273 kts | 133° |
| 2026-04-28 23:15 | 47.28467 | -122.07734 | 6113 ft | 274 kts | 106° |
| 2026-04-28 23:15 | 47.28292 | -122.05030 | 6729 ft | 276 kts | 80° |
| 2026-04-28 23:15 | 47.28952 | -122.02443 | 7354 ft | 277 kts | 54° |
| 2026-04-28 23:15 | 47.30312 | -122.00545 | 7972 ft | 277 kts | 28° |
| 2026-04-28 23:16 | 47.32102 | -121.99714 | 8594 ft | 277 kts | 2° |
| 2026-04-28 23:16 | 47.33970 | -121.99853 | 9220 ft | 277 kts | 354° |
| 2026-04-28 23:16 | 47.35873 | -121.99948 | 9839 ft | 279 kts | 2° |
| 2026-04-28 23:16 | 47.37779 | -121.99831 | 10458 ft | 281 kts | 0° |
| 2026-04-28 23:17 | 47.39679 | -121.99828 | 11159 ft | 282 kts | 359° |
| 2026-04-28 23:17 | 47.41647 | -121.99867 | 11934 ft | 299 kts | 358° |
| 2026-04-28 23:17 | 47.43731 | -121.99958 | 12746 ft | 315 kts | 357° |
| 2026-04-28 23:17 | 47.45892 | -122.00092 | 13547 ft | 324 kts | 356° |
| 2026-04-28 23:18 | 47.48114 | -122.00262 | 14319 ft | 327 kts | 355° |
| 2026-04-28 23:18 | 47.50331 | -122.00460 | 15048 ft | 330 kts | 355° |
| 2026-04-28 23:18 | 47.52563 | -122.00680 | 15775 ft | 334 kts | 355° |
| 2026-04-28 23:18 | 47.54840 | -122.00919 | 16502 ft | 337 kts | 355° |
| 2026-04-28 23:19 | 47.57148 | -122.01168 | 17231 ft | 339 kts | 355° |
| 2026-04-28 23:19 | 47.59464 | -122.01429 | 17947 ft | 342 kts | 355° |
| 2026-04-28 23:19 | 47.61848 | -122.01698 | 18692 ft | 343 kts | 354° |
| 2026-04-28 23:19 | 47.64183 | -122.01958 | 19436 ft | 344 kts | 354° |
| 2026-04-28 23:20 | 47.66516 | -122.02222 | 20177 ft | 346 kts | 354° |
| 2026-04-28 23:20 | 47.68843 | -122.02488 | 20916 ft | 349 kts | 354° |
| 2026-04-28 23:20 | 47.71197 | -122.02767 | 21659 ft | 353 kts | 354° |
| 2026-04-28 23:20 | 47.73579 | -122.03046 | 22408 ft | 355 kts | 354° |
| 2026-04-28 23:21 | 47.75970 | -122.03323 | 23152 ft | 358 kts | 353° |
| 2026-04-28 23:21 | 47.78371 | -122.03611 | 23907 ft | 360 kts | 353° |
| 2026-04-28 23:21 | 47.80777 | -122.03895 | 24648 ft | 365 kts | 353° |
| 2026-04-28 23:21 | 47.83241 | -122.04200 | 25418 ft | 371 kts | 353° |
| 2026-04-28 23:22 | 47.85777 | -122.04511 | 26214 ft | 376 kts | 353° |
| 2026-04-28 23:22 | 47.88307 | -122.04816 | 26999 ft | 380 kts | 353° |
| 2026-04-28 23:22 | 47.90862 | -122.05129 | 27784 ft | 384 kts | 353° |
| 2026-04-28 23:22 | 47.93411 | -122.05440 | 28552 ft | 388 kts | 353° |
| 2026-04-28 23:23 | 47.96075 | -122.05765 | 29197 ft | 394 kts | 353° |
| 2026-04-28 23:23 | 47.98710 | -122.06094 | 29638 ft | 403 kts | 353° |
| 2026-04-28 23:23 | 48.01438 | -122.06428 | 30005 ft | 409 kts | 353° |
| 2026-04-28 23:23 | 48.04194 | -122.06764 | 30312 ft | 408 kts | 353° |
| 2026-04-28 23:24 | 48.06891 | -122.07087 | 30553 ft | 407 kts | 353° |
| 2026-04-28 23:24 | 48.09640 | -122.07423 | 30811 ft | 405 kts | 353° |
| 2026-04-28 23:24 | 48.12342 | -122.07762 | 31067 ft | 404 kts | 353° |
| 2026-04-28 23:24 | 48.15032 | -122.08104 | 31311 ft | 403 kts | 353° |
| 2026-04-28 23:25 | 48.17666 | -122.08468 | 31568 ft | 402 kts | 351° |
| 2026-04-28 23:25 | 48.20343 | -122.08817 | 31797 ft | 403 kts | 356° |
| 2026-04-28 23:25 | 48.22998 | -122.08872 | 32050 ft | 403 kts | 356° |
| 2026-04-28 23:25 | 48.25727 | -122.09010 | 32310 ft | 403 kts | 355° |
| 2026-04-28 23:26 | 48.28141 | -122.09155 | 32538 ft | 403 kts | 355° |
| 2026-04-28 23:26 | 48.30605 | -122.09293 | 32767 ft | 404 kts | 355° |
| 2026-04-28 23:26 | 48.35437 | -122.09596 | 33222 ft | 402 kts | 355° |
| 2026-04-28 23:27 | 48.38139 | -122.09772 | 33476 ft | 401 kts | 355° |